sensor_id;sensor_type;location;lat;lon;timestamp;P1;durP1;ratioP1;P2;durP2;ratioP2
826;SDS011;395;48.132;11.608;2023-04-12T00:00:00;2.43;;;1.80;;
826;SDS011;395;48.132;11.608;2023-04-12T00:02:25;3.67;;;1.77;;
826;SDS011;395;48.132;11.608;2023-04-12T00:04:51;3.43;;;1.60;;
826;SDS011;395;48.132;11.608;2023-04-12T00:07:22;2.83;;;2.23;;
826;SDS011;395;48.132;11.608;2023-04-12T00:09:48;2.63;;;2.00;;
826;SDS011;395;48.132;11.608;2023-04-12T00:12:14;3.50;;;1.70;;
826;SDS011;395;48.132;11.608;2023-04-12T00:14:43;2.27;;;1.30;;
826;SDS011;395;48.132;11.608;2023-04-12T00:17:09;2.70;;;1.70;;
826;SDS011;395;48.132;11.608;2023-04-12T00:19:36;2.40;;;1.60;;
826;SDS011;395;48.132;11.608;2023-04-12T00:22:05;2.40;;;2.07;;
826;SDS011;395;48.132;11.608;2023-04-12T00:24:31;2.87;;;1.90;;
826;SDS011;395;48.132;11.608;2023-04-12T00:26:58;3.67;;;1.57;;
826;SDS011;395;48.132;11.608;2023-04-12T00:29:26;3.90;;;1.70;;
826;SDS011;395;48.132;11.608;2023-04-12T00:31:52;3.03;;;2.00;;
826;SDS011;395;48.132;11.608;2023-04-12T00:34:17;2.77;;;2.00;;
826;SDS011;395;48.132;11.608;2023-04-12T00:36:43;2.50;;;1.30;;
826;SDS011;395;48.132;11.608;2023-04-12T00:39:08;2.80;;;1.73;;
826;SDS011;395;48.132;11.608;2023-04-12T00:41:37;2.20;;;2.00;;
826;SDS011;395;48.132;11.608;2023-04-12T00:44:03;3.13;;;1.67;;
826;SDS011;395;48.132;11.608;2023-04-12T00:46:29;2.57;;;1.50;;
826;SDS011;395;48.132;11.608;2023-04-12T00:48:56;2.33;;;1.77;;
826;SDS011;395;48.132;11.608;2023-04-12T00:51:22;1.73;;;1.60;;
826;SDS011;395;48.132;11.608;2023-04-12T00:53:49;2.63;;;1.83;;
826;SDS011;395;48.132;11.608;2023-04-12T00:56:23;1.43;;;1.33;;
826;SDS011;395;48.132;11.608;2023-04-12T00:58:51;2.50;;;2.07;;
826;SDS011;395;48.132;11.608;2023-04-12T01:01:17;5.50;;;1.70;;
826;SDS011;395;48.132;11.608;2023-04-12T01:03:43;2.90;;;1.67;;
826;SDS011;395;48.132;11.608;2023-04-12T01:14:10;2.47;;;1.50;;
826;SDS011;395;48.132;11.608;2023-04-12T01:17:02;2.07;;;1.70;;
826;SDS011;395;48.132;11.608;2023-04-12T01:22:09;3.17;;;1.57;;
826;SDS011;395;48.132;11.608;2023-04-12T01:27:49;1.80;;;1.67;;
826;SDS011;395;48.132;11.608;2023-04-12T01:30:22;2.00;;;1.60;;
826;SDS011;395;48.132;11.608;2023-04-12T01:32:52;7.13;;;1.77;;
826;SDS011;395;48.132;11.608;2023-04-12T01:35:20;3.27;;;1.70;;
826;SDS011;395;48.132;11.608;2023-04-12T01:37:50;2.07;;;1.43;;
826;SDS011;395;48.132;11.608;2023-04-12T01:40:17;2.97;;;1.73;;
826;SDS011;395;48.132;11.608;2023-04-12T01:42:43;1.83;;;1.20;;
826;SDS011;395;48.132;11.608;2023-04-12T01:45:09;3.40;;;1.40;;
826;SDS011;395;48.132;11.608;2023-04-12T01:47:35;2.50;;;1.70;;
826;SDS011;395;48.132;11.608;2023-04-12T01:53:00;3.80;;;1.20;;
826;SDS011;395;48.132;11.608;2023-04-12T01:55:30;2.90;;;1.63;;
826;SDS011;395;48.132;11.608;2023-04-12T01:57:58;5.03;;;1.63;;
826;SDS011;395;48.132;11.608;2023-04-12T02:00:26;2.00;;;1.50;;
826;SDS011;395;48.132;11.608;2023-04-12T02:02:53;1.80;;;1.37;;
826;SDS011;395;48.132;11.608;2023-04-12T02:05:19;2.97;;;1.27;;
826;SDS011;395;48.132;11.608;2023-04-12T02:07:45;1.97;;;1.30;;
826;SDS011;395;48.132;11.608;2023-04-12T02:10:13;3.23;;;1.50;;
826;SDS011;395;48.132;11.608;2023-04-12T02:12:39;2.27;;;1.30;;
826;SDS011;395;48.132;11.608;2023-04-12T02:15:05;1.93;;;1.43;;
826;SDS011;395;48.132;11.608;2023-04-12T02:17:32;2.07;;;1.60;;
826;SDS011;395;48.132;11.608;2023-04-12T02:20:00;3.50;;;1.63;;
826;SDS011;395;48.132;11.608;2023-04-12T02:22:26;3.37;;;2.10;;
826;SDS011;395;48.132;11.608;2023-04-12T02:24:51;5.03;;;1.40;;
826;SDS011;395;48.132;11.608;2023-04-12T02:27:17;2.63;;;1.63;;
826;SDS011;395;48.132;11.608;2023-04-12T02:29:44;1.97;;;1.40;;
826;SDS011;395;48.132;11.608;2023-04-12T02:32:09;2.90;;;1.70;;
826;SDS011;395;48.132;11.608;2023-04-12T02:34:35;4.27;;;1.67;;
826;SDS011;395;48.132;11.608;2023-04-12T02:37:02;2.20;;;1.70;;
826;SDS011;395;48.132;11.608;2023-04-12T02:39:28;1.73;;;1.60;;
826;SDS011;395;48.132;11.608;2023-04-12T02:41:56;4.00;;;1.93;;
826;SDS011;395;48.132;11.608;2023-04-12T02:44:22;2.40;;;1.57;;
826;SDS011;395;48.132;11.608;2023-04-12T02:46:47;1.77;;;1.40;;
826;SDS011;395;48.132;11.608;2023-04-12T02:49:13;3.77;;;1.73;;
826;SDS011;395;48.132;11.608;2023-04-12T02:51:38;2.00;;;1.20;;
826;SDS011;395;48.132;11.608;2023-04-12T02:54:04;2.30;;;1.40;;
826;SDS011;395;48.132;11.608;2023-04-12T02:56:30;1.90;;;1.70;;
826;SDS011;395;48.132;11.608;2023-04-12T02:58:58;1.87;;;1.40;;
826;SDS011;395;48.132;11.608;2023-04-12T03:01:24;3.27;;;1.47;;
826;SDS011;395;48.132;11.608;2023-04-12T03:03:50;3.00;;;1.60;;
826;SDS011;395;48.132;11.608;2023-04-12T03:06:16;5.53;;;1.67;;
826;SDS011;395;48.132;11.608;2023-04-12T03:08:41;2.70;;;1.23;;
826;SDS011;395;48.132;11.608;2023-04-12T03:11:07;1.93;;;1.30;;
826;SDS011;395;48.132;11.608;2023-04-12T03:13:32;2.00;;;1.50;;
826;SDS011;395;48.132;11.608;2023-04-12T03:15:58;3.90;;;1.60;;
826;SDS011;395;48.132;11.608;2023-04-12T03:18:24;1.97;;;1.40;;
826;SDS011;395;48.132;11.608;2023-04-12T03:20:50;1.60;;;1.27;;
826;SDS011;395;48.132;11.608;2023-04-12T03:23:18;2.77;;;1.50;;
826;SDS011;395;48.132;11.608;2023-04-12T03:25:44;2.53;;;1.30;;
826;SDS011;395;48.132;11.608;2023-04-12T03:28:10;2.27;;;1.80;;
826;SDS011;395;48.132;11.608;2023-04-12T03:30:36;1.63;;;1.10;;
826;SDS011;395;48.132;11.608;2023-04-12T03:33:01;2.00;;;1.27;;
826;SDS011;395;48.132;11.608;2023-04-12T03:35:27;2.40;;;1.77;;
826;SDS011;395;48.132;11.608;2023-04-12T03:37:52;1.30;;;1.20;;
826;SDS011;395;48.132;11.608;2023-04-12T03:40:18;4.10;;;1.60;;
826;SDS011;395;48.132;11.608;2023-04-12T03:42:44;2.03;;;1.50;;
826;SDS011;395;48.132;11.608;2023-04-12T03:45:09;2.87;;;1.50;;
826;SDS011;395;48.132;11.608;2023-04-12T03:47:36;4.27;;;1.67;;
826;SDS011;395;48.132;11.608;2023-04-12T03:50:02;2.20;;;1.67;;
826;SDS011;395;48.132;11.608;2023-04-12T03:52:32;2.70;;;1.30;;
826;SDS011;395;48.132;11.608;2023-04-12T03:54:58;5.60;;;2.30;;
826;SDS011;395;48.132;11.608;2023-04-12T03:57:25;3.70;;;1.50;;
826;SDS011;395;48.132;11.608;2023-04-12T03:59:50;2.47;;;1.60;;
826;SDS011;395;48.132;11.608;2023-04-12T04:02:16;2.97;;;1.50;;
826;SDS011;395;48.132;11.608;2023-04-12T04:04:42;2.30;;;1.83;;
826;SDS011;395;48.132;11.608;2023-04-12T04:07:08;4.73;;;1.70;;
826;SDS011;395;48.132;11.608;2023-04-12T04:09:35;1.80;;;1.43;;
826;SDS011;395;48.132;11.608;2023-04-12T04:12:00;2.83;;;2.03;;
826;SDS011;395;48.132;11.608;2023-04-12T04:14:26;2.30;;;1.50;;
826;SDS011;395;48.132;11.608;2023-04-12T04:16:52;2.13;;;1.30;;
826;SDS011;395;48.132;11.608;2023-04-12T04:19:19;3.30;;;1.67;;
826;SDS011;395;48.132;11.608;2023-04-12T04:21:45;1.80;;;1.20;;
826;SDS011;395;48.132;11.608;2023-04-12T04:24:11;4.17;;;1.73;;
826;SDS011;395;48.132;11.608;2023-04-12T04:26:38;1.90;;;1.50;;
826;SDS011;395;48.132;11.608;2023-04-12T04:29:03;1.80;;;1.30;;
826;SDS011;395;48.132;11.608;2023-04-12T04:31:30;1.77;;;1.53;;
826;SDS011;395;48.132;11.608;2023-04-12T04:34:00;4.30;;;1.70;;
826;SDS011;395;48.132;11.608;2023-04-12T04:36:27;2.40;;;1.40;;
826;SDS011;395;48.132;11.608;2023-04-12T04:38:54;3.03;;;1.47;;
826;SDS011;395;48.132;11.608;2023-04-12T04:41:21;4.00;;;1.70;;
826;SDS011;395;48.132;11.608;2023-04-12T04:43:48;2.20;;;1.67;;
826;SDS011;395;48.132;11.608;2023-04-12T04:46:14;6.50;;;1.83;;
826;SDS011;395;48.132;11.608;2023-04-12T04:48:41;3.53;;;1.57;;
826;SDS011;395;48.132;11.608;2023-04-12T04:51:07;3.87;;;1.77;;
826;SDS011;395;48.132;11.608;2023-04-12T04:53:32;2.43;;;1.50;;
826;SDS011;395;48.132;11.608;2023-04-12T04:55:58;3.77;;;1.87;;
826;SDS011;395;48.132;11.608;2023-04-12T04:58:25;3.23;;;1.57;;
826;SDS011;395;48.132;11.608;2023-04-12T05:00:54;4.03;;;1.77;;
826;SDS011;395;48.132;11.608;2023-04-12T05:03:21;1.73;;;1.63;;
826;SDS011;395;48.132;11.608;2023-04-12T05:05:48;2.70;;;1.50;;
826;SDS011;395;48.132;11.608;2023-04-12T05:08:14;2.40;;;1.50;;
826;SDS011;395;48.132;11.608;2023-04-12T05:10:41;4.07;;;1.53;;
826;SDS011;395;48.132;11.608;2023-04-12T05:13:08;2.50;;;1.43;;
826;SDS011;395;48.132;11.608;2023-04-12T05:15:34;3.30;;;1.93;;
826;SDS011;395;48.132;11.608;2023-04-12T05:17:59;2.73;;;1.40;;
826;SDS011;395;48.132;11.608;2023-04-12T05:20:25;2.40;;;1.67;;
826;SDS011;395;48.132;11.608;2023-04-12T05:22:51;3.67;;;1.67;;
826;SDS011;395;48.132;11.608;2023-04-12T05:25:17;3.47;;;2.27;;
826;SDS011;395;48.132;11.608;2023-04-12T05:27:44;2.17;;;1.80;;
826;SDS011;395;48.132;11.608;2023-04-12T05:30:10;2.80;;;1.97;;
826;SDS011;395;48.132;11.608;2023-04-12T05:32:36;4.40;;;1.90;;
826;SDS011;395;48.132;11.608;2023-04-12T05:35:02;4.93;;;1.97;;
826;SDS011;395;48.132;11.608;2023-04-12T05:37:28;2.60;;;2.23;;
826;SDS011;395;48.132;11.608;2023-04-12T05:39:54;4.50;;;2.47;;
826;SDS011;395;48.132;11.608;2023-04-12T05:42:19;3.63;;;2.10;;
826;SDS011;395;48.132;11.608;2023-04-12T05:44:45;4.30;;;1.93;;
826;SDS011;395;48.132;11.608;2023-04-12T05:47:12;3.67;;;1.90;;
826;SDS011;395;48.132;11.608;2023-04-12T05:49:38;2.20;;;2.00;;
826;SDS011;395;48.132;11.608;2023-04-12T05:52:04;2.07;;;1.87;;
826;SDS011;395;48.132;11.608;2023-04-12T05:54:30;4.23;;;2.27;;
826;SDS011;395;48.132;11.608;2023-04-12T05:56:55;3.70;;;1.83;;
826;SDS011;395;48.132;11.608;2023-04-12T05:59:21;4.10;;;2.10;;
826;SDS011;395;48.132;11.608;2023-04-12T06:01:47;5.80;;;2.33;;
826;SDS011;395;48.132;11.608;2023-04-12T06:04:13;2.97;;;1.77;;
826;SDS011;395;48.132;11.608;2023-04-12T06:06:39;3.47;;;1.80;;
826;SDS011;395;48.132;11.608;2023-04-12T06:09:05;3.50;;;1.80;;
826;SDS011;395;48.132;11.608;2023-04-12T06:11:30;2.50;;;1.70;;
826;SDS011;395;48.132;11.608;2023-04-12T06:13:58;3.23;;;1.60;;
826;SDS011;395;48.132;11.608;2023-04-12T06:16:24;4.87;;;1.90;;
826;SDS011;395;48.132;11.608;2023-04-12T06:18:50;3.97;;;1.93;;
826;SDS011;395;48.132;11.608;2023-04-12T06:21:16;2.40;;;1.87;;
826;SDS011;395;48.132;11.608;2023-04-12T06:23:43;3.07;;;1.60;;
826;SDS011;395;48.132;11.608;2023-04-12T06:26:08;2.83;;;1.60;;
826;SDS011;395;48.132;11.608;2023-04-12T06:28:34;3.43;;;1.90;;
826;SDS011;395;48.132;11.608;2023-04-12T06:31:00;3.23;;;1.80;;
826;SDS011;395;48.132;11.608;2023-04-12T06:33:25;4.20;;;2.20;;
826;SDS011;395;48.132;11.608;2023-04-12T06:35:51;3.53;;;1.60;;
826;SDS011;395;48.132;11.608;2023-04-12T06:38:17;2.80;;;1.90;;
826;SDS011;395;48.132;11.608;2023-04-12T06:40:43;3.13;;;1.60;;
826;SDS011;395;48.132;11.608;2023-04-12T06:43:08;2.70;;;1.43;;
826;SDS011;395;48.132;11.608;2023-04-12T06:45:34;3.50;;;1.47;;
826;SDS011;395;48.132;11.608;2023-04-12T06:48:00;2.93;;;1.50;;
826;SDS011;395;48.132;11.608;2023-04-12T06:50:25;2.90;;;1.50;;
826;SDS011;395;48.132;11.608;2023-04-12T06:52:51;2.97;;;1.80;;
826;SDS011;395;48.132;11.608;2023-04-12T06:55:17;2.70;;;1.53;;
826;SDS011;395;48.132;11.608;2023-04-12T06:57:43;4.47;;;1.50;;
826;SDS011;395;48.132;11.608;2023-04-12T07:00:10;2.60;;;1.73;;
826;SDS011;395;48.132;11.608;2023-04-12T07:02:36;4.30;;;2.27;;
826;SDS011;395;48.132;11.608;2023-04-12T07:05:03;3.03;;;2.00;;
826;SDS011;395;48.132;11.608;2023-04-12T07:07:31;1.83;;;1.30;;
826;SDS011;395;48.132;11.608;2023-04-12T07:09:57;7.57;;;2.20;;
826;SDS011;395;48.132;11.608;2023-04-12T07:12:24;1.97;;;1.70;;
826;SDS011;395;48.132;11.608;2023-04-12T07:14:50;4.67;;;1.70;;
826;SDS011;395;48.132;11.608;2023-04-12T07:17:15;5.70;;;1.73;;
826;SDS011;395;48.132;11.608;2023-04-12T07:19:41;2.90;;;1.90;;
826;SDS011;395;48.132;11.608;2023-04-12T07:22:08;2.00;;;1.63;;
826;SDS011;395;48.132;11.608;2023-04-12T07:24:33;3.27;;;1.97;;
826;SDS011;395;48.132;11.608;2023-04-12T07:26:59;2.73;;;1.50;;
826;SDS011;395;48.132;11.608;2023-04-12T07:29:25;3.10;;;2.53;;
826;SDS011;395;48.132;11.608;2023-04-12T07:31:50;5.20;;;2.07;;
826;SDS011;395;48.132;11.608;2023-04-12T07:34:16;4.23;;;1.80;;
826;SDS011;395;48.132;11.608;2023-04-12T07:36:42;4.77;;;2.00;;
826;SDS011;395;48.132;11.608;2023-04-12T07:39:10;6.00;;;1.93;;
826;SDS011;395;48.132;11.608;2023-04-12T07:41:36;5.93;;;2.17;;
826;SDS011;395;48.132;11.608;2023-04-12T07:44:03;2.57;;;1.67;;
826;SDS011;395;48.132;11.608;2023-04-12T07:46:29;1.90;;;1.70;;
826;SDS011;395;48.132;11.608;2023-04-12T07:48:55;2.50;;;1.73;;
826;SDS011;395;48.132;11.608;2023-04-12T07:51:20;1.73;;;1.43;;
826;SDS011;395;48.132;11.608;2023-04-12T07:53:46;2.03;;;1.23;;
826;SDS011;395;48.132;11.608;2023-04-12T07:56:15;3.23;;;1.77;;
826;SDS011;395;48.132;11.608;2023-04-12T07:58:41;2.67;;;1.80;;
826;SDS011;395;48.132;11.608;2023-04-12T08:01:07;2.77;;;1.80;;
826;SDS011;395;48.132;11.608;2023-04-12T08:03:32;3.37;;;1.90;;
826;SDS011;395;48.132;11.608;2023-04-12T08:05:58;4.63;;;1.90;;
826;SDS011;395;48.132;11.608;2023-04-12T08:08:24;4.33;;;1.93;;
826;SDS011;395;48.132;11.608;2023-04-12T08:10:50;3.77;;;1.97;;
826;SDS011;395;48.132;11.608;2023-04-12T08:13:16;3.10;;;1.87;;
826;SDS011;395;48.132;11.608;2023-04-12T08:15:42;1.67;;;1.50;;
826;SDS011;395;48.132;11.608;2023-04-12T08:18:08;2.23;;;1.90;;
826;SDS011;395;48.132;11.608;2023-04-12T08:20:35;3.03;;;2.17;;
826;SDS011;395;48.132;11.608;2023-04-12T08:23:05;3.00;;;2.07;;
826;SDS011;395;48.132;11.608;2023-04-12T08:25:31;1.70;;;1.57;;
826;SDS011;395;48.132;11.608;2023-04-12T08:27:58;1.97;;;1.77;;
826;SDS011;395;48.132;11.608;2023-04-12T08:30:23;5.90;;;2.50;;
826;SDS011;395;48.132;11.608;2023-04-12T08:32:51;5.30;;;2.17;;
826;SDS011;395;48.132;11.608;2023-04-12T08:35:17;2.93;;;2.03;;
826;SDS011;395;48.132;11.608;2023-04-12T08:37:43;3.53;;;2.10;;
826;SDS011;395;48.132;11.608;2023-04-12T08:40:09;2.93;;;2.40;;
826;SDS011;395;48.132;11.608;2023-04-12T08:42:35;3.53;;;1.87;;
826;SDS011;395;48.132;11.608;2023-04-12T08:45:05;2.73;;;2.07;;
826;SDS011;395;48.132;11.608;2023-04-12T08:47:41;2.40;;;1.83;;
826;SDS011;395;48.132;11.608;2023-04-12T08:50:09;4.13;;;1.80;;
826;SDS011;395;48.132;11.608;2023-04-12T08:52:38;2.63;;;2.10;;
826;SDS011;395;48.132;11.608;2023-04-12T08:55:05;1.87;;;1.77;;
826;SDS011;395;48.132;11.608;2023-04-12T08:57:31;3.27;;;1.97;;
826;SDS011;395;48.132;11.608;2023-04-12T08:59:59;2.93;;;2.33;;
826;SDS011;395;48.132;11.608;2023-04-12T09:02:26;4.10;;;2.00;;
826;SDS011;395;48.132;11.608;2023-04-12T09:04:52;6.90;;;2.07;;
826;SDS011;395;48.132;11.608;2023-04-12T09:07:21;4.20;;;2.07;;
826;SDS011;395;48.132;11.608;2023-04-12T09:09:47;3.70;;;2.17;;
826;SDS011;395;48.132;11.608;2023-04-12T09:12:14;2.63;;;1.83;;
826;SDS011;395;48.132;11.608;2023-04-12T09:14:41;2.17;;;1.70;;
826;SDS011;395;48.132;11.608;2023-04-12T09:17:20;2.47;;;2.10;;
826;SDS011;395;48.132;11.608;2023-04-12T09:19:47;3.43;;;1.80;;
826;SDS011;395;48.132;11.608;2023-04-12T09:22:12;2.70;;;1.57;;
826;SDS011;395;48.132;11.608;2023-04-12T09:24:48;3.50;;;2.00;;
826;SDS011;395;48.132;11.608;2023-04-12T09:27:17;1.97;;;1.60;;
826;SDS011;395;48.132;11.608;2023-04-12T09:29:46;3.50;;;1.70;;
826;SDS011;395;48.132;11.608;2023-04-12T09:32:25;2.10;;;1.40;;
826;SDS011;395;48.132;11.608;2023-04-12T09:34:55;1.97;;;1.77;;
826;SDS011;395;48.132;11.608;2023-04-12T09:37:21;1.90;;;1.60;;
826;SDS011;395;48.132;11.608;2023-04-12T09:39:47;2.13;;;1.60;;
826;SDS011;395;48.132;11.608;2023-04-12T09:42:27;2.50;;;1.60;;
826;SDS011;395;48.132;11.608;2023-04-12T09:44:53;1.93;;;1.83;;
826;SDS011;395;48.132;11.608;2023-04-12T09:47:19;2.20;;;2.00;;
826;SDS011;395;48.132;11.608;2023-04-12T09:49:45;2.10;;;1.90;;
826;SDS011;395;48.132;11.608;2023-04-12T09:52:11;1.87;;;1.47;;
826;SDS011;395;48.132;11.608;2023-04-12T09:54:42;1.77;;;1.67;;
826;SDS011;395;48.132;11.608;2023-04-12T09:57:09;2.73;;;1.60;;
826;SDS011;395;48.132;11.608;2023-04-12T09:59:36;3.90;;;1.80;;
826;SDS011;395;48.132;11.608;2023-04-12T10:02:14;2.10;;;1.73;;
826;SDS011;395;48.132;11.608;2023-04-12T10:04:41;3.50;;;1.53;;
826;SDS011;395;48.132;11.608;2023-04-12T10:07:07;2.20;;;1.30;;
826;SDS011;395;48.132;11.608;2023-04-12T10:09:33;1.40;;;1.30;;
826;SDS011;395;48.132;11.608;2023-04-12T10:12:01;1.60;;;1.50;;
826;SDS011;395;48.132;11.608;2023-04-12T10:14:28;1.70;;;1.60;;
826;SDS011;395;48.132;11.608;2023-04-12T10:16:58;2.17;;;1.93;;
826;SDS011;395;48.132;11.608;2023-04-12T10:19:25;2.10;;;1.50;;
826;SDS011;395;48.132;11.608;2023-04-12T10:21:53;2.47;;;1.63;;
826;SDS011;395;48.132;11.608;2023-04-12T10:24:20;1.63;;;1.53;;
826;SDS011;395;48.132;11.608;2023-04-12T10:26:47;1.30;;;1.20;;
826;SDS011;395;48.132;11.608;2023-04-12T10:29:32;1.53;;;1.30;;
826;SDS011;395;48.132;11.608;2023-04-12T10:34:53;1.53;;;1.30;;
826;SDS011;395;48.132;11.608;2023-04-12T10:37:20;2.03;;;1.10;;
826;SDS011;395;48.132;11.608;2023-04-12T10:39:53;1.23;;;1.13;;
826;SDS011;395;48.132;11.608;2023-04-12T10:42:20;2.87;;;1.30;;
826;SDS011;395;48.132;11.608;2023-04-12T10:50:20;1.17;;;1.03;;
826;SDS011;395;48.132;11.608;2023-04-12T10:55:40;1.10;;;1.03;;
826;SDS011;395;48.132;11.608;2023-04-12T10:58:08;1.13;;;1.03;;
826;SDS011;395;48.132;11.608;2023-04-12T11:03:25;2.20;;;1.07;;
826;SDS011;395;48.132;11.608;2023-04-12T11:06:04;1.20;;;0.80;;
826;SDS011;395;48.132;11.608;2023-04-12T11:08:30;1.33;;;0.70;;
826;SDS011;395;48.132;11.608;2023-04-12T11:11:03;1.73;;;0.70;;
826;SDS011;395;48.132;11.608;2023-04-12T11:13:38;1.00;;;0.70;;
826;SDS011;395;48.132;11.608;2023-04-12T11:16:05;1.00;;;0.80;;
826;SDS011;395;48.132;11.608;2023-04-12T11:18:32;1.00;;;0.90;;
826;SDS011;395;48.132;11.608;2023-04-12T11:20:59;1.33;;;1.00;;
826;SDS011;395;48.132;11.608;2023-04-12T11:23:26;1.33;;;0.93;;
826;SDS011;395;48.132;11.608;2023-04-12T11:25:52;2.07;;;1.17;;
826;SDS011;395;48.132;11.608;2023-04-12T11:28:19;2.87;;;1.17;;
826;SDS011;395;48.132;11.608;2023-04-12T11:30:51;1.97;;;1.13;;
826;SDS011;395;48.132;11.608;2023-04-12T11:33:37;1.20;;;1.07;;
826;SDS011;395;48.132;11.608;2023-04-12T11:36:07;1.63;;;1.10;;
826;SDS011;395;48.132;11.608;2023-04-12T11:38:36;1.77;;;1.50;;
826;SDS011;395;48.132;11.608;2023-04-12T11:41:02;2.50;;;1.53;;
826;SDS011;395;48.132;11.608;2023-04-12T11:43:30;2.43;;;1.77;;
826;SDS011;395;48.132;11.608;2023-04-12T11:45:58;1.50;;;1.30;;
826;SDS011;395;48.132;11.608;2023-04-12T11:48:24;2.63;;;1.33;;
826;SDS011;395;48.132;11.608;2023-04-12T11:50:51;1.10;;;1.00;;
826;SDS011;395;48.132;11.608;2023-04-12T11:53:17;1.87;;;1.03;;
826;SDS011;395;48.132;11.608;2023-04-12T11:55:49;1.97;;;1.20;;
826;SDS011;395;48.132;11.608;2023-04-12T11:58:21;2.57;;;1.80;;
826;SDS011;395;48.132;11.608;2023-04-12T12:00:48;1.63;;;1.20;;
826;SDS011;395;48.132;11.608;2023-04-12T12:03:14;1.67;;;1.10;;
826;SDS011;395;48.132;11.608;2023-04-12T12:05:40;1.60;;;1.50;;
826;SDS011;395;48.132;11.608;2023-04-12T12:08:06;1.87;;;1.63;;
826;SDS011;395;48.132;11.608;2023-04-12T12:10:36;3.00;;;1.40;;
826;SDS011;395;48.132;11.608;2023-04-12T12:13:10;1.10;;;1.00;;
826;SDS011;395;48.132;11.608;2023-04-12T12:15:41;1.97;;;1.20;;
826;SDS011;395;48.132;11.608;2023-04-12T12:18:09;1.47;;;1.33;;
826;SDS011;395;48.132;11.608;2023-04-12T12:20:38;3.13;;;1.47;;
826;SDS011;395;48.132;11.608;2023-04-12T12:23:11;3.07;;;1.30;;
826;SDS011;395;48.132;11.608;2023-04-12T12:25:50;1.20;;;1.10;;
826;SDS011;395;48.132;11.608;2023-04-12T12:28:16;1.10;;;1.00;;
826;SDS011;395;48.132;11.608;2023-04-12T12:30:42;2.60;;;1.47;;
826;SDS011;395;48.132;11.608;2023-04-12T12:33:08;1.47;;;1.27;;
826;SDS011;395;48.132;11.608;2023-04-12T12:35:35;2.40;;;1.00;;
826;SDS011;395;48.132;11.608;2023-04-12T12:38:04;1.70;;;1.40;;
826;SDS011;395;48.132;11.608;2023-04-12T12:40:31;2.20;;;1.23;;
826;SDS011;395;48.132;11.608;2023-04-12T12:42:56;1.17;;;1.07;;
826;SDS011;395;48.132;11.608;2023-04-12T12:45:23;1.20;;;1.10;;
826;SDS011;395;48.132;11.608;2023-04-12T12:50:23;5.00;;;1.50;;
826;SDS011;395;48.132;11.608;2023-04-12T12:52:53;1.60;;;1.50;;
826;SDS011;395;48.132;11.608;2023-04-12T12:55:20;1.07;;;0.90;;
826;SDS011;395;48.132;11.608;2023-04-12T12:57:47;3.93;;;1.07;;
826;SDS011;395;48.132;11.608;2023-04-12T13:00:15;1.93;;;1.23;;
826;SDS011;395;48.132;11.608;2023-04-12T13:02:42;2.23;;;1.40;;
826;SDS011;395;48.132;11.608;2023-04-12T13:05:08;1.40;;;0.90;;
826;SDS011;395;48.132;11.608;2023-04-12T13:07:34;1.83;;;1.10;;
826;SDS011;395;48.132;11.608;2023-04-12T13:10:00;1.17;;;1.07;;
826;SDS011;395;48.132;11.608;2023-04-12T13:12:26;1.70;;;1.20;;
826;SDS011;395;48.132;11.608;2023-04-12T13:14:52;3.03;;;1.23;;
826;SDS011;395;48.132;11.608;2023-04-12T13:17:18;1.70;;;1.60;;
826;SDS011;395;48.132;11.608;2023-04-12T13:19:44;2.00;;;1.80;;
826;SDS011;395;48.132;11.608;2023-04-12T13:22:12;2.30;;;1.20;;
826;SDS011;395;48.132;11.608;2023-04-12T13:24:43;3.77;;;1.40;;
826;SDS011;395;48.132;11.608;2023-04-12T13:27:09;1.97;;;1.00;;
826;SDS011;395;48.132;11.608;2023-04-12T13:29:35;1.50;;;1.00;;
826;SDS011;395;48.132;11.608;2023-04-12T13:32:01;2.53;;;1.20;;
826;SDS011;395;48.132;11.608;2023-04-12T13:34:27;5.00;;;1.57;;
826;SDS011;395;48.132;11.608;2023-04-12T13:36:53;1.03;;;0.70;;
826;SDS011;395;48.132;11.608;2023-04-12T13:39:18;2.00;;;1.20;;
826;SDS011;395;48.132;11.608;2023-04-12T13:41:45;1.63;;;0.80;;
826;SDS011;395;48.132;11.608;2023-04-12T13:44:11;1.20;;;0.83;;
826;SDS011;395;48.132;11.608;2023-04-12T13:46:36;1.30;;;1.20;;
826;SDS011;395;48.132;11.608;2023-04-12T13:49:02;1.50;;;1.00;;
826;SDS011;395;48.132;11.608;2023-04-12T13:51:27;1.10;;;0.90;;
826;SDS011;395;48.132;11.608;2023-04-12T13:53:53;2.73;;;1.13;;
826;SDS011;395;48.132;11.608;2023-04-12T13:56:19;1.67;;;1.33;;
826;SDS011;395;48.132;11.608;2023-04-12T13:58:45;1.67;;;1.00;;
826;SDS011;395;48.132;11.608;2023-04-12T14:01:11;1.30;;;0.90;;
826;SDS011;395;48.132;11.608;2023-04-12T14:03:37;3.43;;;1.23;;
826;SDS011;395;48.132;11.608;2023-04-12T14:06:03;2.57;;;1.00;;
826;SDS011;395;48.132;11.608;2023-04-12T14:08:30;1.23;;;0.87;;
826;SDS011;395;48.132;11.608;2023-04-12T14:10:55;1.60;;;1.23;;
826;SDS011;395;48.132;11.608;2023-04-12T14:13:21;1.70;;;1.20;;
826;SDS011;395;48.132;11.608;2023-04-12T14:15:48;1.70;;;1.17;;
826;SDS011;395;48.132;11.608;2023-04-12T14:18:15;1.73;;;1.00;;
826;SDS011;395;48.132;11.608;2023-04-12T14:20:41;1.93;;;1.00;;
826;SDS011;395;48.132;11.608;2023-04-12T14:23:07;1.30;;;1.20;;
826;SDS011;395;48.132;11.608;2023-04-12T14:25:34;2.10;;;0.80;;
826;SDS011;395;48.132;11.608;2023-04-12T14:28:01;1.80;;;1.17;;
826;SDS011;395;48.132;11.608;2023-04-12T14:30:27;1.57;;;1.03;;
826;SDS011;395;48.132;11.608;2023-04-12T14:32:53;1.20;;;0.90;;
826;SDS011;395;48.132;11.608;2023-04-12T14:35:18;1.30;;;0.90;;
826;SDS011;395;48.132;11.608;2023-04-12T14:37:44;2.00;;;1.13;;
826;SDS011;395;48.132;11.608;2023-04-12T14:40:09;2.07;;;1.03;;
826;SDS011;395;48.132;11.608;2023-04-12T14:42:35;1.70;;;1.47;;
826;SDS011;395;48.132;11.608;2023-04-12T14:45:01;3.10;;;1.10;;
826;SDS011;395;48.132;11.608;2023-04-12T14:47:29;1.10;;;1.00;;
826;SDS011;395;48.132;11.608;2023-04-12T14:49:55;1.60;;;1.50;;
826;SDS011;395;48.132;11.608;2023-04-12T14:52:20;1.67;;;1.27;;
826;SDS011;395;48.132;11.608;2023-04-12T14:54:46;1.87;;;1.40;;
826;SDS011;395;48.132;11.608;2023-04-12T14:57:11;1.60;;;1.00;;
826;SDS011;395;48.132;11.608;2023-04-12T14:59:37;1.97;;;1.70;;
826;SDS011;395;48.132;11.608;2023-04-12T15:02:03;2.03;;;1.50;;
826;SDS011;395;48.132;11.608;2023-04-12T15:04:29;2.10;;;1.37;;
826;SDS011;395;48.132;11.608;2023-04-12T15:06:54;1.17;;;1.00;;
826;SDS011;395;48.132;11.608;2023-04-12T15:09:20;1.80;;;1.30;;
826;SDS011;395;48.132;11.608;2023-04-12T15:11:49;2.23;;;1.20;;
826;SDS011;395;48.132;11.608;2023-04-12T15:14:18;2.50;;;1.47;;
826;SDS011;395;48.132;11.608;2023-04-12T15:16:45;2.17;;;1.00;;
826;SDS011;395;48.132;11.608;2023-04-12T15:19:12;1.40;;;0.70;;
826;SDS011;395;48.132;11.608;2023-04-12T15:21:39;3.67;;;1.20;;
826;SDS011;395;48.132;11.608;2023-04-12T15:24:04;1.70;;;1.20;;
826;SDS011;395;48.132;11.608;2023-04-12T15:26:30;2.37;;;1.57;;
826;SDS011;395;48.132;11.608;2023-04-12T15:28:57;1.23;;;1.13;;
826;SDS011;395;48.132;11.608;2023-04-12T15:31:23;1.80;;;1.10;;
826;SDS011;395;48.132;11.608;2023-04-12T15:33:49;1.70;;;1.17;;
826;SDS011;395;48.132;11.608;2023-04-12T15:36:15;2.00;;;1.03;;
826;SDS011;395;48.132;11.608;2023-04-12T15:38:44;2.10;;;1.50;;
826;SDS011;395;48.132;11.608;2023-04-12T15:41:09;1.23;;;1.10;;
826;SDS011;395;48.132;11.608;2023-04-12T15:43:35;1.70;;;1.17;;
826;SDS011;395;48.132;11.608;2023-04-12T15:46:01;1.40;;;0.90;;
826;SDS011;395;48.132;11.608;2023-04-12T15:48:27;3.43;;;1.07;;
826;SDS011;395;48.132;11.608;2023-04-12T15:50:53;3.17;;;1.30;;
826;SDS011;395;48.132;11.608;2023-04-12T15:53:21;3.00;;;1.30;;
826;SDS011;395;48.132;11.608;2023-04-12T15:55:48;2.27;;;1.40;;
826;SDS011;395;48.132;11.608;2023-04-12T15:58:18;2.80;;;1.50;;
826;SDS011;395;48.132;11.608;2023-04-12T16:00:45;1.80;;;1.40;;